Flight Track Log - Related Links

Times and Time Zones

All times are in EDT time to prevent confusion due to time zone crossing. See the GJS3649 flight status page for this flight to view local times or setup timezone preferences in your user account.

Time Position Orientation Groundspeed Altitude Reporting Facility
EDT Latitude Longitude Course Direction KTS MPH feet Rate Location/Type
Sun 07:35:21 PM 41.9500 -72.7053 236° Southwest 127 146 1,100  Level Boston Center
Sun 07:36:26 PM 41.9853 -72.7583 312° West 159 183 3,300 2,112 Climbing Boston Center
Sun 07:37:26 PM 41.9786 -72.8422 264° West 182 209 5,500 2,682 Climbing Boston Center
Sun 07:38:00 PM 41.9072 -73.1340 265° West  Level FlightAware Approximate
Sun 07:38:38 PM 41.9533 -72.9536 253° West 227 261 9,200  Level Boston Center
Sun 07:39:00 PM 41.9000 -73.2480 270° West  Level FlightAware Approximate
Sun 07:39:38 PM 41.9278 -73.0456 250° West 254 292 12,100  Level Boston Center
Sun 07:40:00 PM 41.8741 -73.3519 236° Southwest  Level FlightAware Approximate
Sun 07:40:38 PM 41.9044 -73.1319 250° West 280 322 13,800  Level Boston Center
Sun 07:41:38 PM 41.8722 -73.2486 250° West 293 337 16,400 2,600 Climbing Boston Center
Sun 07:42:38 PM 41.8422 -73.3514 249° West 300 345 19,000 2,050 Climbing Boston Center
Sun 07:43:38 PM 41.8103 -73.4594 248° West 310 357 20,500 1,550 Climbing Boston Center
Sun 07:44:38 PM 41.7511 -73.5447 227° Southwest 310 357 22,100 1,700 Climbing Boston Center
Sun 07:45:38 PM 41.6775 -73.6131 215° Southwest 310 357 23,900 613 Climbing Boston Center
Sun 07:47:44 PM 41.5367 -73.7367 213° Southwest 322 371 24,000 33 Climbing New York Center
Sun 07:48:41 PM 41.4664 -73.8028 215° Southwest 327 376 24,000  Level New York Center
Sun 07:49:42 PM 41.3917 -73.8711 214° Southwest 327 376 24,000  Level New York Center
Sun 07:50:41 PM 41.3211 -73.9369 215° Southwest 322 371 24,000  Level New York Center
Sun 07:51:42 PM 41.2464 -74.0053 215° Southwest 322 371 24,000  Level New York Center
Sun 07:52:42 PM 41.1739 -74.0706 214° Southwest 322 371 24,000  Level New York Center
Sun 07:53:42 PM 41.1153 -74.1558 228° Southwest 322 371 24,000  Level New York Center
Sun 07:54:43 PM 41.0686 -74.2553 238° Southwest 322 371 24,000  Level New York Center
Sun 07:55:44 PM 41.0239 -74.3547 239° Southwest 327 376 24,000  Level New York Center
Sun 07:56:41 PM 40.9792 -74.4569 240° Southwest 327 376 24,000  Level New York Center
Sun 07:57:42 PM 40.9342 -74.5586 240° Southwest 327 376 24,000  Level New York Center
Sun 07:58:43 PM 40.8892 -74.6606 240° Southwest 327 376 24,000  Level New York Center
Sun 07:59:43 PM 40.8422 -74.7594 238° Southwest 327 376 24,000  Level New York Center
Sun 08:00:43 PM 40.7992 -74.8608 241° Southwest 327 376 24,000  Level New York Center
Sun 08:01:41 PM 40.7519 -74.9567 237° Southwest 327 376 24,000  Level New York Center
Sun 08:02:42 PM 40.7089 -75.0556 240° Southwest 327 376 24,000 -347 Level New York Center
Sun 08:03:42 PM 40.6594 -75.1561 237° Southwest 327 376 23,300 -850 Descending New York Center
Sun 08:04:42 PM 40.6139 -75.2572 239° Southwest 327 376 22,300 -1,000 Descending New York Center
Sun 08:05:42 PM 40.5661 -75.3581 238° Southwest 327 376 21,300 -1,000 Descending New York Center
Sun 08:06:42 PM 40.5208 -75.4558 239° Southwest 327 376 20,300 -645 Descending New York Center
Sun 08:07:43 PM 40.4753 -75.5511 238° Southwest 327 376 20,000 -151 Descending New York Center
Sun 08:08:41 PM 40.4319 -75.6436 238° Southwest 322 371 20,000  Level New York Center
Sun 08:09:42 PM 40.3861 -75.7411 238° Southwest 322 371 20,000  Level New York Center
Sun 08:10:43 PM 40.3333 -75.8517 238° Southwest 324 373 20,000  Level New York Center
Sun 08:11:42 PM 40.2878 -75.9436 237° Southwest 330 380 20,000  Level New York Center
Sun 08:12:43 PM 40.2394 -76.0461 238° Southwest 336 387 20,000 -50 Level New York Center
Sun 08:13:41 PM 40.1892 -76.1428 236° Southwest 336 387 19,900 -555 Descending New York Center
Sun 08:14:42 PM 40.1453 -76.2372 239° Southwest 318 366 18,900 -1,033 Descending New York Center
Sun 08:15:43 PM 40.0942 -76.3472 239° Southwest 318 366 17,800 -1,045 Descending New York Center
Sun 08:17:40 PM 40.0000 -76.5500 239° Southwest 329 379 15,800 -915 Descending Potomac TRACON
Sun 08:18:40 PM 39.9500 -76.6500 237° Southwest 332 382 15,100 -400 Descending Potomac TRACON
Sun 08:19:40 PM 39.9000 -76.7500 237° Southwest 333 383 15,000 -450 Descending Potomac TRACON
Sun 08:20:40 PM 39.8667 -76.8500 247° West 333 383 14,200 -1,140 Descending Potomac TRACON
Sun 08:21:41 PM 39.8167 -76.9500 237° Southwest 326 375 12,700 -1,181 Descending Potomac TRACON
Sun 08:22:47 PM 39.7667 -77.0500 237° Southwest 328 377 11,700 -952 Descending Potomac TRACON
Sun 08:23:47 PM 39.7167 -77.1500 237° Southwest 329 379 10,700 -843 Descending Potomac TRACON
Sun 08:24:48 PM 39.6667 -77.2500 237° Southwest 330 380 10,000 -347 Descending Potomac TRACON
Sun 08:25:48 PM 39.6167 -77.3333 232° Southwest 322 371 10,000 -744 Level Potomac TRACON
Sun 08:26:49 PM 39.5333 -77.3500 189° South 286 329 8,500 -1,636 Descending Potomac TRACON
Sun 08:27:49 PM 39.4667 -77.3500 180° South 275 316 6,700 -1,600 Descending Potomac TRACON
Sun 08:28:49 PM 39.3833 -77.3667 189° South 272 313 5,300 -800 Descending Potomac TRACON
Sun 08:29:49 PM 39.3000 -77.3667 180° South 274 315 5,100 -524 Descending Potomac TRACON
Sun 08:30:55 PM 39.2167 -77.3667 180° South 267 307 4,200 -476 Descending Potomac TRACON
Sun 08:31:55 PM 39.1333 -77.3667 180° South 271 312 4,100 -50 Descending Potomac TRACON
Sun 08:32:55 PM 39.0667 -77.3500 169° South 270 311 4,100 -500 Level Potomac TRACON
Sun 08:33:55 PM 38.9833 -77.3500 180° South 265 305 3,100 -992 Descending Potomac TRACON
Sun 08:34:56 PM 38.9167 -77.3500 180° South 259 298 2,100 -496 Descending Potomac TRACON
Sun 08:35:56 PM 38.8667 -77.3500 180° South 193 222 2,100  Level Potomac TRACON
Sun 08:36:56 PM 38.8167 -77.3833 207° Southwest 170 196 2,100 -50 Level Potomac TRACON
Sun 08:37:56 PM 38.8333 -77.4167 303° West 150 173 2,000 -300 Descending Potomac TRACON
Sun 08:38:56 PM 38.8667 -77.4333 339° North 132 152 1,500 -600 Descending Potomac TRACON
Sun 08:39:56 PM 38.9000 -77.4333 360° North 132 152 800 -700 Descending Potomac TRACON

Login

Don't have an account? Register now (free) for customized features, flight alerts, and more!